Time;durP1;ratioP1;P1;durP2;ratioP2;P2;SDS_P1;SDS_P2;PMS_P1;PMS_P2;Temp;Humidity;BMP_temperature;BMP_pressure;BME280_temperature;BME280_humidity;BME280_pressure;Samples;Min_cycle;Max_cycle;Signal;HPM_P1;HPM_P2
2023/12/16 00:01:51;;;;;;;632.05;586.05;;;6.60;99.90;;;;;;6299317;22;20051;-82
2023/12/16 00:04:16;;;;;;;583.05;541.35;;;6.50;99.90;;;;;;6299188;22;20016;-82
2023/12/16 00:06:42;;;;;;;577.17;536.28;;;6.50;99.90;;;;;;6300713;22;20019;-82
2023/12/16 00:09:08;;;;;;;586.50;544.38;;;6.50;99.90;;;;;;6301530;22;20087;-82
2023/12/16 00:11:33;;;;;;;543.22;505.02;;;6.60;99.90;;;;;;6300716;22;20021;-82
2023/12/16 00:13:59;;;;;;;595.63;553.35;;;6.50;99.90;;;;;;6301484;22;20027;-83
2023/12/16 00:16:26;;;;;;;522.58;486.10;;;6.50;99.90;;;;;;6275118;22;20340;-82
2023/12/16 00:18:52;;;;;;;528.50;492.33;;;6.50;99.90;;;;;;6301956;22;20061;-83
2023/12/16 00:21:18;;;;;;;504.80;470.67;;;6.50;99.90;;;;;;6300615;22;20019;-82
2023/12/16 00:23:43;;;;;;;483.27;450.80;;;6.50;99.90;;;;;;6300790;22;20068;-82
2023/12/16 00:26:09;;;;;;;455.58;425.52;;;6.50;99.90;;;;;;6301176;22;20019;-82
2023/12/16 00:28:35;;;;;;;452.30;422.95;;;6.40;99.90;;;;;;6275670;22;20026;-82
2023/12/16 00:31:01;;;;;;;468.25;437.10;;;6.30;99.90;;;;;;6302958;22;20109;-82
2023/12/16 00:33:27;;;;;;;454.13;424.35;;;6.30;99.90;;;;;;6302797;22;20381;-82
2023/12/16 00:35:52;;;;;;;475.55;443.67;;;6.30;99.90;;;;;;6300423;22;20025;-82
2023/12/16 00:38:18;;;;;;;427.13;399.95;;;6.20;99.90;;;;;;6302362;22;20346;-82
2023/12/16 00:40:44;;;;;;;443.38;414.67;;;6.20;99.90;;;;;;6300769;22;20030;-83
2023/12/16 00:43:10;;;;;;;415.88;388.70;;;6.20;99.90;;;;;;6301311;22;20339;-83
2023/12/16 00:45:36;;;;;;;500.48;466.83;;;6.10;99.90;;;;;;6299226;22;20023;-82
2023/12/16 00:48:02;;;;;;;416.25;388.85;;;6.10;99.90;;;;;;6301274;22;20086;-82
2023/12/16 00:50:27;;;;;;;482.13;449.17;;;6.10;99.90;;;;;;6299104;22;20023;-83
2023/12/16 00:52:53;;;;;;;475.33;443.17;;;6.00;99.90;;;;;;6300468;22;20017;-82
2023/12/16 00:55:19;;;;;;;464.60;433.73;;;6.00;99.90;;;;;;6301109;22;20054;-82
2023/12/16 00:57:44;;;;;;;449.23;419.58;;;6.00;99.90;;;;;;6304300;22;20442;-82
2023/12/16 01:00:11;;;;;;;481.33;449.23;;;5.90;99.90;;;;;;6305541;22;20022;-83
2023/12/16 01:02:37;;;;;;;499.45;465.23;;;5.90;99.90;;;;;;6305447;22;20014;-83
2023/12/16 01:05:03;;;;;;;496.80;463.10;;;5.90;99.90;;;;;;6305437;22;20488;-82
2023/12/16 01:07:29;;;;;;;533.28;496.77;;;5.90;99.90;;;;;;6305487;22;20431;-82
2023/12/16 01:09:55;;;;;;;526.08;490.05;;;5.90;99.90;;;;;;6331729;22;20075;-82
2023/12/16 01:12:20;;;;;;;539.35;501.77;;;5.90;99.90;;;;;;6306285;22;20086;-83
2023/12/16 01:14:46;;;;;;;515.90;481.42;;;5.90;99.90;;;;;;6304290;22;20022;-82
2023/12/16 01:17:12;;;;;;;513.22;478.02;;;5.90;99.90;;;;;;6305823;22;20080;-82
2023/12/16 01:19:38;;;;;;;517.60;481.85;;;5.80;99.90;;;;;;6304239;22;20519;-82
2023/12/16 01:22:03;;;;;;;496.40;462.88;;;5.80;99.90;;;;;;6305239;22;20015;-82
2023/12/16 01:24:32;;;;;;;485.33;452.50;;;5.90;99.90;;;;;;6305307;22;20434;-83
2023/12/16 01:26:57;;;;;;;451.27;421.88;;;5.90;99.90;;;;;;6304534;22;20015;-82
2023/12/16 01:29:23;;;;;;;491.42;458.35;;;5.80;99.90;;;;;;6333907;22;20549;-82
2023/12/16 01:31:49;;;;;;;476.90;445.33;;;5.90;99.90;;;;;;6305663;22;20022;-82
2023/12/16 01:34:14;;;;;;;510.67;476.65;;;5.80;99.90;;;;;;6278906;22;20018;-82
2023/12/16 01:36:40;;;;;;;464.98;434.08;;;5.90;99.90;;;;;;6304878;22;20015;-82
2023/12/16 01:39:06;;;;;;;495.85;462.42;;;5.80;99.90;;;;;;6280237;22;20019;-82
2023/12/16 01:41:31;;;;;;;519.88;483.80;;;5.80;99.90;;;;;;6304734;22;20339;-82
2023/12/16 01:43:57;;;;;;;463.90;433.60;;;5.90;99.90;;;;;;6306678;22;20098;-82
2023/12/16 01:46:23;;;;;;;435.50;407.23;;;5.90;99.90;;;;;;6305391;22;20023;-82
2023/12/16 01:48:49;;;;;;;481.30;449.13;;;5.90;99.90;;;;;;6304720;22;20026;-82
2023/12/16 01:51:17;;;;;;;457.80;427.33;;;6.00;99.90;;;;;;6304656;22;20011;-82
2023/12/16 01:53:43;;;;;;;423.45;395.80;;;5.90;99.90;;;;;;6333711;22;20014;-82
2023/12/16 01:56:09;;;;;;;429.45;401.52;;;5.90;99.90;;;;;;6304779;22;20057;-82
2023/12/16 01:58:37;;;;;;;484.05;451.70;;;5.90;99.90;;;;;;6333817;22;20018;-82
2023/12/16 02:01:03;;;;;;;443.98;415.08;;;5.90;99.90;;;;;;6305689;22;20098;-82
2023/12/16 02:03:30;;;;;;;496.98;463.40;;;5.90;99.90;;;;;;6304814;22;20050;-82
2023/12/16 02:05:57;;;;;;;411.48;385.20;;;5.90;99.90;;;;;;6304869;22;20553;-82
2023/12/16 02:08:23;;;;;;;418.20;391.33;;;5.90;99.90;;;;;;6305881;22;20019;-82
2023/12/16 02:10:49;;;;;;;404.13;378.20;;;5.90;99.90;;;;;;6304496;22;20014;-82
2023/12/16 02:13:15;;;;;;;417.77;391.08;;;5.90;99.90;;;;;;6305860;22;20380;-82
2023/12/16 02:15:40;;;;;;;399.25;373.75;;;5.90;99.90;;;;;;6304841;22;20093;-82
2023/12/16 02:18:06;;;;;;;396.77;371.50;;;5.80;99.90;;;;;;6333434;22;20457;-82
2023/12/16 02:20:32;;;;;;;417.15;390.08;;;5.80;99.90;;;;;;6303608;22;20420;-82
2023/12/16 02:23:00;;;;;;;453.50;423.30;;;5.80;99.90;;;;;;6305776;22;20090;-82
2023/12/16 02:25:26;;;;;;;427.30;399.42;;;5.80;99.90;;;;;;6304741;22;20102;-82
2023/12/16 02:27:52;;;;;;;432.73;404.38;;;5.80;99.90;;;;;;6332164;22;20431;-82
2023/12/16 02:30:20;;;;;;;394.52;369.08;;;5.70;99.90;;;;;;6304656;22;20776;-82
2023/12/16 02:32:46;;;;;;;453.50;423.83;;;5.70;99.90;;;;;;6332821;22;20019;-82
2023/12/16 02:35:12;;;;;;;456.27;426.23;;;5.60;99.90;;;;;;6304262;22;20026;-82
2023/12/16 02:37:37;;;;;;;448.60;418.83;;;5.60;99.90;;;;;;6303826;22;20014;-82
2023/12/16 02:40:04;;;;;;;412.42;386.13;;;5.60;99.90;;;;;;6305049;22;20075;-82
2023/12/16 02:42:30;;;;;;;417.17;390.08;;;5.50;99.90;;;;;;6305278;22;20023;-82
2023/12/16 02:44:56;;;;;;;415.15;388.23;;;5.90;99.90;;;;;;6278196;22;20439;-82
2023/12/16 02:47:21;;;;;;;477.73;446.08;;;5.50;99.90;;;;;;6333494;22;20022;-82
2023/12/16 02:49:47;;;;;;;502.33;468.55;;;5.40;99.90;;;;;;6303138;22;20096;-82
2023/12/16 02:52:13;;;;;;;494.98;461.38;;;5.50;99.90;;;;;;6332594;22;20029;-82
2023/12/16 02:54:38;;;;;;;515.47;480.45;;;5.40;99.90;;;;;;6278796;22;20477;-82
2023/12/16 02:57:04;;;;;;;493.10;459.13;;;5.40;99.90;;;;;;6279121;22;20095;-82
2023/12/16 02:59:30;;;;;;;552.20;513.35;;;5.40;99.90;;;;;;6303440;22;20088;-82
2023/12/16 03:01:56;;;;;;;528.85;493.08;;;5.40;99.90;;;;;;6305081;22;20022;-82
2023/12/16 03:04:21;;;;;;;546.75;507.70;;;5.40;99.90;;;;;;6304444;22;20015;-82
2023/12/16 03:06:47;;;;;;;578.42;536.88;;;5.40;99.90;;;;;;6303509;22;20365;-82
2023/12/16 03:09:13;;;;;;;630.47;584.13;;;5.30;99.90;;;;;;6304382;22;20015;-82
2023/12/16 03:11:39;;;;;;;584.47;543.50;;;5.30;99.90;;;;;;6333096;22;20015;-82
2023/12/16 03:14:05;;;;;;;668.53;619.13;;;5.40;99.90;;;;;;6303762;22;20611;-82
2023/12/16 03:16:33;;;;;;;602.13;558.15;;;5.40;99.90;;;;;;6332114;22;20054;-82
2023/12/16 03:18:59;;;;;;;657.30;607.63;;;5.40;99.90;;;;;;6305399;22;20048;-82
2023/12/16 03:21:24;;;;;;;633.42;586.10;;;5.40;99.90;;;;;;6302515;22;20018;-82
2023/12/16 03:23:50;;;;;;;671.33;622.17;;;5.40;99.90;;;;;;6333087;22;20022;-82
2023/12/16 03:26:16;;;;;;;641.78;595.13;;;5.40;99.90;;;;;;6303367;22;20359;-82
2023/12/16 03:28:41;;;;;;;657.15;608.05;;;5.40;99.90;;;;;;6304700;22;20039;-83
2023/12/16 03:31:07;;;;;;;615.58;570.55;;;5.40;99.90;;;;;;6304885;22;20507;-82
2023/12/16 03:33:33;;;;;;;612.80;568.08;;;5.40;99.90;;;;;;6303032;22;20014;-82
2023/12/16 03:35:59;;;;;;;651.17;603.55;;;5.40;99.90;;;;;;6332466;22;20030;-82
2023/12/16 03:38:24;;;;;;;673.58;624.30;;;5.40;99.90;;;;;;6332390;22;20011;-82
2023/12/16 03:40:50;;;;;;;626.13;580.13;;;5.40;99.90;;;;;;6303306;22;20019;-82
2023/12/16 03:43:17;;;;;;;638.15;591.92;;;5.90;99.90;;;;;;6305029;22;20331;-82
2023/12/16 03:45:43;;;;;;;609.78;564.63;;;5.40;99.90;;;;;;6331993;22;20052;-82
2023/12/16 03:48:09;;;;;;;599.20;555.70;;;5.40;99.90;;;;;;6303816;22;20455;-82
2023/12/16 03:50:35;;;;;;;612.83;567.47;;;5.40;99.90;;;;;;6303743;22;20335;-82
2023/12/16 03:53:01;;;;;;;612.80;568.28;;;5.40;99.90;;;;;;6305365;22;20427;-82
2023/12/16 03:55:26;;;;;;;655.53;606.85;;;5.40;99.90;;;;;;6303866;22;20026;-82
2023/12/16 03:57:52;;;;;;;657.28;608.53;;;5.30;99.90;;;;;;6304925;22;20013;-82
2023/12/16 04:00:18;;;;;;;674.10;624.58;;;5.50;99.90;;;;;;6304748;22;20508;-83
2023/12/16 04:02:44;;;;;;;615.88;570.28;;;5.30;99.90;;;;;;6303465;22;20018;-83
2023/12/16 04:05:10;;;;;;;652.55;604.63;;;5.30;99.90;;;;;;6304620;22;20076;-82
2023/12/16 04:07:36;;;;;;;680.85;629.92;;;5.30;99.90;;;;;;6304830;22;20018;-83
2023/12/16 04:10:03;;;;;;;662.88;614.13;;;5.50;99.90;;;;;;6303784;22;20019;-82
2023/12/16 04:12:29;;;;;;;642.97;595.63;;;5.30;99.90;;;;;;6305203;22;20174;-82
2023/12/16 04:14:54;;;;;;;635.35;588.25;;;5.30;99.90;;;;;;6304325;22;20347;-82
2023/12/16 04:17:20;;;;;;;667.38;617.97;;;5.50;99.90;;;;;;6278395;22;20076;-82
2023/12/16 04:19:51;;;;;;;680.88;630.10;;;5.30;99.90;;;;;;6303857;22;20011;-82
2023/12/16 04:22:17;;;;;;;677.38;627.08;;;5.30;99.90;;;;;;6305141;22;20094;-83
2023/12/16 04:24:43;;;;;;;658.50;609.20;;;5.30;99.90;;;;;;6303534;22;20330;-82
2023/12/16 04:27:09;;;;;;;671.80;621.20;;;5.20;99.90;;;;;;6304539;22;20011;-82
2023/12/16 04:29:34;;;;;;;671.63;621.67;;;5.20;99.90;;;;;;6303280;22;20359;-82
2023/12/16 04:32:00;;;;;;;661.00;612.50;;;5.70;99.90;;;;;;6304415;22;20042;-82
2023/12/16 04:34:26;;;;;;;698.95;645.95;;;5.30;99.90;;;;;;6302820;22;20018;-82
2023/12/16 04:36:52;;;;;;;663.15;613.80;;;5.30;99.90;;;;;;6331797;22;20006;-82
2023/12/16 04:39:18;;;;;;;652.28;603.88;;;5.30;99.90;;;;;;6331977;22;20053;-82
2023/12/16 04:41:44;;;;;;;662.10;613.00;;;5.30;99.90;;;;;;6332430;22;20390;-82
2023/12/16 04:44:10;;;;;;;662.45;613.30;;;5.50;99.90;;;;;;6331012;22;20010;-82
2023/12/16 04:46:35;;;;;;;679.15;628.42;;;5.20;99.90;;;;;;6303994;22;20465;-82
2023/12/16 04:49:01;;;;;;;670.38;621.30;;;5.40;99.90;;;;;;6304867;22;20022;-82
2023/12/16 04:51:27;;;;;;;653.83;605.75;;;5.10;99.90;;;;;;6302570;22;20468;-82
2023/12/16 04:53:53;;;;;;;701.00;648.63;;;5.10;99.90;;;;;;6332926;22;20089;-82
2023/12/16 04:56:19;;;;;;;731.95;675.00;;;5.40;99.90;;;;;;6333169;22;20014;-82
2023/12/16 04:58:45;;;;;;;684.85;634.47;;;5.10;99.90;;;;;;6279188;22;20018;-82
2023/12/16 05:01:10;;;;;;;709.90;656.28;;;5.10;99.90;;;;;;6305669;22;20026;-82
2023/12/16 05:03:36;;;;;;;670.38;620.15;;;5.10;99.90;;;;;;6305352;22;20022;-82
2023/12/16 05:06:02;;;;;;;743.67;686.58;;;5.10;99.90;;;;;;6304407;22;20022;-82
2023/12/16 05:08:27;;;;;;;689.72;638.03;;;5.20;99.90;;;;;;6305400;22;20056;-82
2023/12/16 05:10:53;;;;;;;718.35;664.72;;;5.20;99.90;;;;;;6306132;22;20022;-82
2023/12/16 05:13:19;;;;;;;666.63;616.58;;;5.70;99.90;;;;;;6305558;22;20015;-82
2023/12/16 05:15:44;;;;;;;703.58;650.15;;;5.30;99.90;;;;;;6304998;22;20461;-82
2023/12/16 05:18:10;;;;;;;694.65;643.08;;;5.30;99.90;;;;;;6306302;22;20019;-82
2023/12/16 05:20:38;;;;;;;682.15;630.40;;;5.20;99.90;;;;;;6302945;22;20096;-82
2023/12/16 05:23:03;;;;;;;664.83;615.80;;;5.20;99.90;;;;;;6306367;22;20077;-82
2023/12/16 05:25:30;;;;;;;680.58;629.97;;;5.20;99.90;;;;;;6305471;22;20019;-81
2023/12/16 05:27:56;;;;;;;695.92;644.42;;;5.20;99.90;;;;;;6279232;22;20017;-82
2023/12/16 05:30:22;;;;;;;727.47;671.88;;;5.20;99.90;;;;;;6305564;22;20019;-82
2023/12/16 05:32:48;;;;;;;690.00;637.75;;;5.20;99.90;;;;;;6305283;22;20111;-82
2023/12/16 05:35:14;;;;;;;686.33;634.15;;;5.20;99.90;;;;;;6304125;22;20015;-82
2023/12/16 05:37:40;;;;;;;753.78;695.53;;;5.30;99.90;;;;;;6279878;22;20019;-82
2023/12/16 05:40:06;;;;;;;715.25;660.60;;;5.50;99.90;;;;;;6278875;22;20029;-81
2023/12/16 05:42:32;;;;;;;774.95;713.92;;;5.30;99.90;;;;;;6306194;22;20347;-82
2023/12/16 05:44:58;;;;;;;754.92;696.55;;;5.30;99.90;;;;;;6304220;22;20019;-82
2023/12/16 05:47:23;;;;;;;806.25;741.83;;;5.30;99.90;;;;;;6305185;22;20023;-82
2023/12/16 05:49:50;;;;;;;788.90;726.67;;;5.40;99.90;;;;;;6332226;22;20339;-82
2023/12/16 05:52:16;;;;;;;798.75;735.45;;;5.50;99.90;;;;;;6280077;22;20064;-82
2023/12/16 05:54:42;;;;;;;818.25;754.22;;;5.50;99.90;;;;;;6304129;22;20445;-82
2023/12/16 05:57:08;;;;;;;801.88;739.33;;;5.60;99.90;;;;;;6305375;22;20098;-82
2023/12/16 05:59:34;;;;;;;884.22;809.97;;;5.70;99.90;;;;;;6299686;22;20030;-82
2023/12/16 06:02:00;;;;;;;812.58;747.80;;;5.80;99.90;;;;;;6301521;22;20050;-82
2023/12/16 06:04:26;;;;;;;746.85;689.63;;;5.90;99.90;;;;;;6298939;22;20347;-82
2023/12/16 06:06:51;;;;;;;759.10;700.50;;;6.00;99.90;;;;;;6302549;22;20023;-82
2023/12/16 06:09:17;;;;;;;738.65;681.75;;;6.00;99.90;;;;;;6301202;22;20011;-82
2023/12/16 06:11:43;;;;;;;695.35;642.35;;;6.00;99.90;;;;;;6300360;22;20532;-82
2023/12/16 06:14:09;;;;;;;733.58;677.47;;;6.10;99.90;;;;;;6300120;22;20069;-82
2023/12/16 06:16:35;;;;;;;704.72;650.80;;;6.20;99.90;;;;;;6301073;22;20074;-82
2023/12/16 06:19:02;;;;;;;716.67;662.33;;;6.20;99.90;;;;;;6300424;22;20094;-82
2023/12/16 06:21:29;;;;;;;720.38;665.58;;;6.20;99.90;;;;;;6298355;22;20467;-82
2023/12/16 06:23:58;;;;;;;722.47;667.58;;;6.20;99.90;;;;;;6299608;22;20023;-83
2023/12/16 06:26:24;;;;;;;667.92;617.35;;;6.30;99.90;;;;;;6301601;22;20082;-82
2023/12/16 06:28:49;;;;;;;688.22;635.53;;;6.30;99.90;;;;;;6274491;22;20019;-82
2023/12/16 06:31:16;;;;;;;742.08;685.55;;;6.30;99.90;;;;;;6301045;22;20054;-82
2023/12/16 06:33:42;;;;;;;724.97;669.95;;;6.30;99.90;;;;;;6299815;22;20018;-81
2023/12/16 06:36:08;;;;;;;722.13;666.75;;;6.40;99.90;;;;;;6299220;22;20019;-82
2023/12/16 06:38:33;;;;;;;706.92;652.42;;;6.40;99.90;;;;;;6298809;22;20011;-82
2023/12/16 06:40:59;;;;;;;719.13;663.10;;;6.40;99.90;;;;;;6301962;22;20457;-82
2023/12/16 06:43:25;;;;;;;734.50;678.63;;;6.40;99.90;;;;;;6301343;22;20096;-82
2023/12/16 06:45:51;;;;;;;694.17;640.92;;;6.50;99.90;;;;;;6299879;22;20201;-82
2023/12/16 06:48:16;;;;;;;675.17;623.30;;;6.50;99.90;;;;;;6300155;22;20386;-82
2023/12/16 06:50:42;;;;;;;696.65;643.53;;;6.50;99.90;;;;;;6297460;22;20019;-83
2023/12/16 06:53:08;;;;;;;692.80;639.72;;;6.50;99.90;;;;;;6300051;22;20464;-82
2023/12/16 06:55:34;;;;;;;715.28;660.92;;;6.50;99.90;;;;;;6299686;22;20019;-82
2023/12/16 06:57:59;;;;;;;707.63;653.55;;;6.50;99.90;;;;;;6298602;22;20140;-82
2023/12/16 07:00:25;;;;;;;724.42;668.95;;;6.50;99.90;;;;;;6301472;22;20016;-82
2023/12/16 07:02:52;;;;;;;747.20;688.30;;;6.50;99.90;;;;;;6299572;22;20398;-82
2023/12/16 07:05:18;;;;;;;761.38;701.55;;;6.50;99.90;;;;;;6297920;22;20015;-82
2023/12/16 07:07:44;;;;;;;738.03;680.75;;;6.50;99.90;;;;;;6299632;22;20045;-82
2023/12/16 07:10:10;;;;;;;729.25;672.83;;;6.50;99.90;;;;;;6299649;22;20060;-82
2023/12/16 07:12:36;;;;;;;738.55;681.78;;;6.50;99.90;;;;;;6298401;22;20019;-82
2023/12/16 07:15:02;;;;;;;770.47;709.58;;;6.40;99.90;;;;;;6298653;22;20026;-82
2023/12/16 07:17:27;;;;;;;735.92;677.85;;;6.50;99.90;;;;;;6301251;22;20046;-82
2023/12/16 07:19:53;;;;;;;782.25;720.28;;;6.40;99.90;;;;;;6297609;22;20023;-82
2023/12/16 07:22:19;;;;;;;777.03;716.30;;;6.50;99.90;;;;;;6299367;22;20015;-82
2023/12/16 07:24:45;;;;;;;745.35;686.80;;;6.40;99.90;;;;;;6298926;22;20037;-81
2023/12/16 07:27:11;;;;;;;751.42;692.58;;;6.50;99.90;;;;;;6298672;22;20019;-82
2023/12/16 07:29:37;;;;;;;779.40;717.03;;;6.40;99.90;;;;;;6301015;22;20101;-82
2023/12/16 07:32:04;;;;;;;767.38;706.47;;;6.40;99.90;;;;;;6273660;22;20023;-82
2023/12/16 07:34:30;;;;;;;789.78;726.78;;;6.50;99.90;;;;;;6297233;22;20015;-82
2023/12/16 07:36:56;;;;;;;768.33;707.55;;;6.50;99.90;;;;;;6298912;22;20019;-82
2023/12/16 07:39:23;;;;;;;788.33;724.63;;;6.40;99.90;;;;;;6298406;22;20011;-83
2023/12/16 07:41:49;;;;;;;830.85;763.60;;;6.50;99.90;;;;;;6297834;22;20443;-82
2023/12/16 07:44:14;;;;;;;800.50;735.30;;;6.40;99.90;;;;;;6300324;22;20019;-83
2023/12/16 07:46:40;;;;;;;811.42;745.38;;;6.50;99.90;;;;;;6271827;22;20439;-82
2023/12/16 07:49:06;;;;;;;778.55;716.95;;;6.50;99.90;;;;;;6299000;22;20031;-82
2023/12/16 07:51:32;;;;;;;805.83;741.35;;;6.50;99.90;;;;;;6299025;22;20019;-83
2023/12/16 07:53:58;;;;;;;822.92;755.63;;;6.50;99.90;;;;;;6298718;22;20058;-82
2023/12/16 07:56:27;;;;;;;820.60;752.95;;;6.50;99.90;;;;;;6300933;22;20015;-83
2023/12/16 07:58:53;;;;;;;835.67;766.90;;;6.50;99.90;;;;;;6299817;22;20347;-82
2023/12/16 08:01:20;;;;;;;792.22;729.58;;;6.60;99.90;;;;;;6297930;22;20023;-82
2023/12/16 08:03:47;;;;;;;788.15;724.78;;;6.60;99.90;;;;;;6299682;22;20347;-83
2023/12/16 08:06:15;;;;;;;811.83;746.78;;;6.60;99.90;;;;;;6298632;22;20018;-82
2023/12/16 08:08:41;;;;;;;812.83;745.28;;;6.60;99.90;;;;;;6300222;22;20090;-82
2023/12/16 08:11:08;;;;;;;799.95;735.55;;;6.60;99.90;;;;;;6299362;22;20019;-81
2023/12/16 08:13:34;;;;;;;816.13;748.50;;;6.70;99.90;;;;;;6297510;22;20045;-81
2023/12/16 08:16:01;;;;;;;784.67;721.72;;;6.70;99.90;;;;;;6298290;22;20019;-81
2023/12/16 08:18:27;;;;;;;815.33;749.67;;;6.70;99.90;;;;;;6272329;22;20436;-81
2023/12/16 08:20:54;;;;;;;829.95;761.72;;;6.70;99.90;;;;;;6298830;22;20043;-82
2023/12/16 08:23:19;;;;;;;805.30;739.72;;;6.70;99.90;;;;;;6300732;22;20408;-81
2023/12/16 08:25:46;;;;;;;805.67;739.40;;;6.70;99.90;;;;;;6300573;22;20023;-81
2023/12/16 08:28:12;;;;;;;813.67;748.08;;;6.80;99.90;;;;;;6301755;22;20011;-81
2023/12/16 08:30:38;;;;;;;793.90;729.40;;;6.80;99.90;;;;;;6302059;22;20015;-82
2023/12/16 08:33:04;;;;;;;832.47;761.75;;;6.80;99.90;;;;;;6302667;22;20419;-85
2023/12/16 08:35:30;;;;;;;834.10;764.35;;;6.90;99.90;;;;;;6300000;22;20049;-88
2023/12/16 08:37:56;;;;;;;879.30;805.38;;;6.80;99.90;;;;;;6274430;22;20025;-83
2023/12/16 08:40:22;;;;;;;836.05;767.28;;;6.90;99.90;;;;;;6301534;22;20019;-86
2023/12/16 08:42:48;;;;;;;850.90;781.22;;;6.90;99.90;;;;;;6274113;22;20022;-83
2023/12/16 08:45:14;;;;;;;822.00;754.47;;;6.90;99.90;;;;;;6300841;22;20027;-83
2023/12/16 08:47:41;;;;;;;809.10;743.60;;;7.00;99.90;;;;;;6300887;22;20043;-82
2023/12/16 08:50:07;;;;;;;853.10;782.40;;;7.00;99.90;;;;;;6298698;22;20011;-82
2023/12/16 08:52:34;;;;;;;830.63;762.25;;;7.00;99.90;;;;;;6300597;22;20014;-83
2023/12/16 08:55:00;;;;;;;851.50;781.38;;;7.00;99.90;;;;;;6300448;22;20015;-83
2023/12/16 08:57:27;;;;;;;815.28;749.30;;;7.00;99.90;;;;;;6299896;22;20019;-82
2023/12/16 08:59:53;;;;;;;813.35;747.55;;;7.00;99.90;;;;;;6280026;22;20014;-83
2023/12/16 09:02:19;;;;;;;850.05;779.88;;;7.00;99.90;;;;;;6306242;22;20011;-83
2023/12/16 09:04:45;;;;;;;818.60;750.72;;;7.10;99.90;;;;;;6329593;22;20480;-82
2023/12/16 09:07:11;;;;;;;872.25;800.67;;;7.00;99.90;;;;;;6333643;22;20019;-83
2023/12/16 09:09:38;;;;;;;841.42;771.20;;;7.00;99.90;;;;;;6305406;22;20082;-83
2023/12/16 09:12:05;;;;;;;853.92;782.72;;;7.00;99.90;;;;;;6305005;22;20026;-82
2023/12/16 09:14:31;;;;;;;822.20;755.75;;;7.10;99.90;;;;;;6305418;22;20042;-83
2023/12/16 09:16:56;;;;;;;805.25;739.00;;;7.10;99.90;;;;;;6306079;22;20435;-83
2023/12/16 09:19:22;;;;;;;841.53;772.38;;;7.20;99.90;;;;;;6303659;22;20335;-82
2023/12/16 09:21:48;;;;;;;867.30;793.97;;;7.20;99.90;;;;;;6305307;22;20025;-83
2023/12/16 09:24:14;;;;;;;843.88;774.40;;;7.20;99.90;;;;;;6305307;22;20014;-83
2023/12/16 09:26:40;;;;;;;851.55;781.10;;;7.20;99.90;;;;;;6304717;22;20027;-82
2023/12/16 09:29:06;;;;;;;853.42;781.85;;;7.30;99.90;;;;;;6305928;22;20022;-82
2023/12/16 09:31:33;;;;;;;866.72;794.80;;;7.20;99.90;;;;;;6279387;22;20022;-82
2023/12/16 09:33:58;;;;;;;835.15;766.67;;;7.20;99.90;;;;;;6304806;22;20391;-83
2023/12/16 09:36:27;;;;;;;822.25;754.72;;;7.30;99.90;;;;;;6330144;22;20045;-82
2023/12/16 09:38:55;;;;;;;846.80;774.85;;;7.30;99.90;;;;;;6306073;22;20077;-83
2023/12/16 09:41:23;;;;;;;867.08;794.22;;;7.30;99.90;;;;;;6331968;22;20015;-83
2023/12/16 09:43:52;;;;;;;852.47;781.88;;;7.30;99.90;;;;;;6305596;22;20019;-83
2023/12/16 09:46:24;;;;;;;814.28;746.97;;;7.40;99.90;;;;;;6332013;22;20018;-83
2023/12/16 09:48:50;;;;;;;815.83;750.15;;;7.30;99.90;;;;;;6305068;22;20019;-84
2023/12/16 09:51:16;;;;;;;855.72;786.38;;;7.40;99.90;;;;;;6277746;22;20017;-84
2023/12/16 09:53:43;;;;;;;820.55;753.58;;;7.40;99.90;;;;;;6304049;22;20019;-83
2023/12/16 09:56:14;;;;;;;861.58;790.00;;;7.30;99.90;;;;;;6306006;22;20023;-82
2023/12/16 09:58:47;;;;;;;836.03;766.50;;;7.30;99.90;;;;;;6301413;22;20084;-82
2023/12/16 10:01:13;;;;;;;834.85;766.30;;;7.40;99.90;;;;;;6298684;22;20019;-82
2023/12/16 10:03:40;;;;;;;840.45;771.15;;;7.40;99.90;;;;;;6302064;22;20092;-82
2023/12/16 10:06:07;;;;;;;855.72;784.63;;;7.40;99.90;;;;;;6273297;22;20114;-82
2023/12/16 10:08:34;;;;;;;846.00;776.40;;;7.40;99.90;;;;;;6301313;22;20011;-82
2023/12/16 10:11:02;;;;;;;862.90;791.55;;;7.40;99.90;;;;;;6299809;22;20373;-82
2023/12/16 10:13:29;;;;;;;874.85;801.75;;;7.40;99.90;;;;;;6302112;22;20030;-82
2023/12/16 10:15:55;;;;;;;841.47;772.17;;;7.40;99.90;;;;;;6299307;22;20344;-81
2023/12/16 10:18:21;;;;;;;889.58;814.22;;;7.50;99.90;;;;;;6299609;22;20019;-81
2023/12/16 10:20:47;;;;;;;834.88;766.20;;;7.50;99.90;;;;;;6273145;22;20022;-81
2023/12/16 10:23:13;;;;;;;824.72;756.40;;;7.50;99.90;;;;;;6298858;22;20011;-82
2023/12/16 10:25:41;;;;;;;844.47;775.75;;;7.60;99.90;;;;;;6300047;22;20096;-81
2023/12/16 10:28:07;;;;;;;808.05;742.40;;;7.50;99.90;;;;;;6274376;22;20026;-81
2023/12/16 10:30:33;;;;;;;796.83;733.35;;;7.70;99.90;;;;;;6298604;22;20086;-82
2023/12/16 10:33:03;;;;;;;814.50;748.33;;;7.60;99.90;;;;;;6299867;22;20015;-82
2023/12/16 10:35:29;;;;;;;802.53;738.08;;;7.60;99.90;;;;;;6297645;22;20015;-83
2023/12/16 10:37:55;;;;;;;819.78;753.50;;;7.70;99.90;;;;;;6300432;22;20201;-83
2023/12/16 10:40:23;;;;;;;837.67;769.35;;;7.60;99.90;;;;;;6298893;22;20050;-81
2023/12/16 10:42:49;;;;;;;806.20;740.53;;;7.60;99.90;;;;;;6299007;22;20329;-82
2023/12/16 10:45:15;;;;;;;805.92;741.15;;;7.60;99.90;;;;;;6273362;22;20030;-85
2023/12/16 10:47:41;;;;;;;834.30;766.47;;;7.70;99.90;;;;;;6299719;22;20060;-83
2023/12/16 10:50:09;;;;;;;846.25;777.63;;;7.60;99.90;;;;;;6298114;22;20014;-83
2023/12/16 10:52:40;;;;;;;842.97;775.05;;;7.70;99.90;;;;;;6273781;22;20007;-83
2023/12/16 10:55:07;;;;;;;829.10;761.22;;;7.60;99.90;;;;;;6274059;22;20031;-84
2023/12/16 10:57:44;;;;;;;823.80;757.63;;;7.60;99.90;;;;;;6298833;22;20026;-83
2023/12/16 11:00:13;;;;;;;882.08;808.17;;;7.70;99.90;;;;;;6273429;22;20051;-82
2023/12/16 11:02:50;;;;;;;841.55;772.15;;;7.80;99.90;;;;;;6299864;22;20019;-83
2023/12/16 11:05:36;;;;;;;845.20;775.40;;;7.70;99.90;;;;;;6298382;22;20046;-83
2023/12/16 11:08:03;;;;;;;810.53;744.72;;;7.70;99.90;;;;;;6300510;22;20141;-83
2023/12/16 11:10:31;;;;;;;803.70;738.55;;;7.80;99.90;;;;;;6298335;22;20081;-82
2023/12/16 11:13:00;;;;;;;852.20;782.63;;;7.70;99.90;;;;;;6300192;22;20015;-83
2023/12/16 11:15:27;;;;;;;840.60;770.70;;;7.80;99.90;;;;;;6300629;22;20047;-82
2023/12/16 11:18:16;;;;;;;860.90;789.70;;;7.90;99.90;;;;;;6299055;22;20607;-82
2023/12/16 11:20:49;;;;;;;812.83;747.72;;;7.90;99.90;;;;;;6298915;22;20476;-82
2023/12/16 11:23:16;;;;;;;;;;;7.90;99.90;;;;;;6274761;22;20023;-82
2023/12/16 11:25:42;;;;;;;834.50;766.17;;;7.90;99.90;;;;;;6298556;22;19964;-82
2023/12/16 11:28:12;;;;;;;839.13;771.35;;;7.90;99.90;;;;;;6299589;22;20019;-82
2023/12/16 11:30:40;;;;;;;845.80;777.65;;;7.90;99.90;;;;;;6299301;22;20047;-82
2023/12/16 11:33:07;;;;;;;805.08;740.80;;;7.90;99.90;;;;;;6272379;22;20019;-82
2023/12/16 11:35:36;;;;;;;839.20;770.30;;;7.90;99.90;;;;;;6297951;22;20019;-83
2023/12/16 11:38:03;;;;;;;840.90;774.22;;;7.90;99.90;;;;;;6299697;22;20035;-82
2023/12/16 11:40:51;;;;;;;786.92;724.47;;;7.90;99.90;;;;;;6297932;22;20015;-82
2023/12/16 11:43:17;;;;;;;843.65;775.83;;;8.00;99.90;;;;;;6273633;22;20025;-82
2023/12/16 11:45:46;;;;;;;803.92;739.88;;;8.00;99.90;;;;;;6296994;22;20043;-82
2023/12/16 11:48:14;;;;;;;840.67;772.08;;;7.90;99.90;;;;;;6299147;22;20011;-83
2023/12/16 11:50:42;;;;;;;816.97;752.85;;;8.00;99.90;;;;;;6297763;22;20019;-82
2023/12/16 11:53:09;;;;;;;844.20;775.65;;;8.10;99.90;;;;;;6298308;22;20008;-83
2023/12/16 11:55:35;;;;;;;818.75;753.40;;;8.00;99.90;;;;;;6298387;22;20560;-83
2023/12/16 11:58:02;;;;;;;827.58;761.22;;;8.00;99.90;;;;;;6272315;22;20042;-83
2023/12/16 12:00:29;;;;;;;802.05;739.08;;;8.10;99.90;;;;;;6271385;22;20201;-84
2023/12/16 12:02:56;;;;;;;857.38;787.83;;;8.10;99.90;;;;;;6273544;22;20008;-84
2023/12/16 12:05:22;;;;;;;839.45;772.83;;;8.00;99.90;;;;;;6272567;22;20019;-83
2023/12/16 12:07:48;;;;;;;849.17;780.00;;;8.20;99.90;;;;;;6297691;22;20506;-82
2023/12/16 12:10:14;;;;;;;882.45;808.28;;;8.20;99.90;;;;;;6273197;22;20057;-84
2023/12/16 12:12:40;;;;;;;884.92;812.75;;;8.20;99.90;;;;;;6271727;22;20057;-84
2023/12/16 12:15:07;;;;;;;859.38;788.63;;;8.30;99.90;;;;;;6297965;22;20019;-84